createdAt,value
2022-11-07T00:00:27.978Z,88.06
2022-11-07T00:01:28.032Z,89.60
2022-11-07T00:02:28.016Z,87.45
2022-11-07T00:03:27.974Z,88.06
2022-11-07T00:04:27.948Z,89.60
2022-11-07T00:05:27.924Z,88.98
2022-11-07T00:06:27.918Z,89.70
2022-11-07T00:07:27.923Z,89.25
2022-11-07T00:08:27.890Z,90.28
2022-11-07T00:09:27.880Z,88.53
2022-11-07T00:10:27.879Z,90.48
2022-11-07T00:11:27.868Z,88.94
2022-11-07T00:12:27.914Z,87.30
2022-11-07T00:13:27.864Z,89.04
2022-11-07T00:14:27.852Z,89.87
2022-11-07T00:15:27.810Z,88.74
2022-11-07T00:16:27.817Z,89.15
2022-11-07T00:17:33.799Z,88.74
2022-11-07T00:18:27.793Z,88.94
2022-11-07T00:19:27.771Z,89.66
2022-11-07T00:20:27.772Z,89.15
2022-11-07T00:21:27.759Z,89.56
2022-11-07T00:22:27.740Z,90.28
2022-11-07T00:23:27.722Z,88.64
2022-11-07T00:24:27.717Z,89.25
2022-11-07T00:25:27.716Z,91.20
2022-11-07T00:26:27.708Z,89.56
2022-11-07T00:27:27.718Z,88.74
2022-11-07T00:28:27.676Z,89.25
2022-11-07T00:29:27.669Z,89.45
2022-11-07T00:30:27.694Z,90.28
2022-11-07T00:31:27.715Z,89.15
2022-11-07T00:32:27.632Z,90.69
2022-11-07T00:33:27.616Z,89.45
2022-11-07T00:34:27.602Z,89.45
2022-11-07T00:35:27.594Z,90.58
2022-11-07T00:36:27.585Z,89.87
2022-11-07T00:37:27.595Z,89.04
2022-11-07T00:38:27.570Z,88.53
2022-11-07T00:39:27.554Z,91.20
2022-11-07T00:40:27.542Z,91.82
2022-11-07T00:41:27.531Z,89.36
2022-11-07T00:42:27.530Z,90.37
2022-11-07T00:43:27.544Z,89.25
2022-11-07T00:44:27.509Z,89.15
2022-11-07T00:45:27.522Z,88.94
2022-11-07T00:46:27.495Z,89.87
2022-11-07T00:47:27.472Z,90.28
2022-11-07T00:48:27.462Z,89.97
2022-11-07T00:49:27.460Z,90.28
2022-11-07T00:50:27.434Z,89.76
2022-11-07T00:51:27.422Z,89.56
2022-11-07T00:52:27.416Z,89.04
2022-11-07T00:53:27.401Z,90.48
2022-11-07T00:54:27.404Z,89.97
2022-11-07T00:55:27.402Z,89.66
2022-11-07T00:56:27.374Z,90.07
2022-11-07T00:57:27.377Z,90.48
2022-11-07T00:58:27.351Z,91.20
2022-11-07T00:59:27.348Z,91.30
2022-11-07T01:00:27.334Z,91.20
2022-11-07T01:01:27.492Z,90.07
2022-11-07T01:02:27.458Z,91.67
2022-11-07T01:03:27.295Z,92.38
2022-11-07T01:04:27.280Z,91.05
2022-11-07T01:05:27.272Z,91.05
2022-11-07T01:06:27.263Z,90.34
2022-11-07T01:07:27.262Z,90.95
2022-11-07T01:08:27.264Z,90.54
2022-11-07T01:09:27.250Z,89.92
2022-11-07T01:10:27.226Z,90.23
2022-11-07T01:11:27.201Z,92.18
2022-11-07T01:12:27.205Z,91.36
2022-11-07T01:13:27.194Z,90.75
2022-11-07T01:14:27.194Z,91.26
2022-11-07T01:15:27.161Z,91.26
2022-11-07T01:16:27.160Z,90.13
2022-11-07T01:17:27.153Z,89.51
2022-11-07T01:18:27.135Z,90.23
2022-11-07T01:19:27.139Z,91.36
2022-11-07T01:20:27.126Z,90.84
2022-11-07T01:21:27.117Z,90.84
2022-11-07T01:22:27.096Z,90.44
2022-11-07T01:23:27.083Z,91.16
2022-11-07T01:24:27.065Z,91.16
2022-11-07T01:25:27.069Z,92.69
2022-11-07T01:26:27.039Z,91.67
2022-11-07T01:27:27.043Z,92.28
2022-11-07T01:28:27.036Z,92.59
2022-11-07T01:29:27.013Z,92.28
2022-11-07T01:30:27.014Z,91.05
2022-11-07T01:31:26.989Z,91.26
2022-11-07T01:32:27.026Z,91.26
2022-11-07T01:33:26.973Z,92.49
2022-11-07T01:34:26.960Z,92.28
2022-11-07T01:35:26.948Z,92.38
2022-11-07T01:36:26.941Z,90.84
2022-11-07T01:37:26.930Z,90.95
2022-11-07T01:38:26.930Z,92.08
2022-11-07T01:39:26.906Z,91.87
2022-11-07T01:40:26.899Z,91.67
2022-11-07T01:41:26.903Z,91.67
2022-11-07T01:42:26.873Z,92.28
2022-11-07T01:43:26.862Z,90.84
2022-11-07T01:44:26.874Z,91.36
2022-11-07T01:45:26.859Z,92.18
2022-11-07T01:46:26.827Z,90.54
2022-11-07T01:47:26.833Z,91.36
2022-11-07T01:48:26.812Z,91.05
2022-11-07T01:49:26.793Z,92.18
2022-11-07T01:50:26.799Z,90.95
2022-11-07T01:51:26.771Z,91.67
2022-11-07T01:52:26.763Z,91.67
2022-11-07T01:53:26.767Z,91.26
2022-11-07T01:54:26.747Z,90.44
2022-11-07T01:55:26.727Z,91.67
2022-11-07T01:56:26.734Z,91.87
2022-11-07T01:57:26.725Z,91.97
2022-11-07T01:58:26.695Z,90.95
2022-11-07T01:59:26.689Z,91.26
2022-11-07T02:00:26.677Z,90.23
2022-11-07T02:01:26.858Z,90.54
2022-11-07T02:02:26.896Z,91.46
2022-11-07T02:03:26.650Z,90.03
2022-11-07T02:04:26.652Z,90.54
2022-11-07T02:05:26.622Z,91.05
2022-11-07T02:06:26.612Z,90.84
2022-11-07T02:07:26.606Z,90.95
2022-11-07T02:08:26.590Z,91.36
2022-11-07T02:09:26.581Z,90.95
2022-11-07T06:01:27.373Z,94.10
2022-11-07T06:02:28.350Z,94.51
2022-11-07T06:03:28.216Z,93.95
2022-11-07T06:04:28.251Z,94.67
2022-11-07T06:05:28.202Z,93.74
2022-11-07T06:06:28.220Z,93.54
2022-11-07T06:07:28.182Z,94.26
2022-11-07T06:08:28.153Z,94.46
2022-11-07T06:09:28.153Z,94.36
2022-11-07T06:10:28.142Z,94.67
2022-11-07T06:11:28.132Z,93.85
2022-11-07T06:12:28.129Z,93.65
2022-11-07T06:13:28.103Z,94.06
2022-11-07T06:14:28.108Z,93.95
2022-11-07T06:15:28.089Z,94.67
2022-11-07T06:16:34.163Z,94.56
2022-11-07T06:17:28.067Z,93.13
2022-11-07T06:18:28.050Z,94.06
2022-11-07T06:19:28.040Z,93.44
2022-11-07T06:20:28.057Z,93.95
2022-11-07T06:21:28.015Z,93.95
2022-11-07T06:22:28.014Z,94.67
2022-11-07T06:23:28.001Z,94.56
2022-11-07T06:24:28.007Z,93.24
2022-11-07T06:25:27.979Z,93.95
2022-11-07T06:26:27.994Z,94.46
2022-11-07T06:27:27.963Z,93.95
2022-11-07T06:28:27.959Z,93.95
2022-11-07T06:29:27.943Z,93.44
2022-11-07T06:30:27.923Z,93.74
2022-11-07T06:31:27.930Z,93.74
2022-11-07T06:32:27.913Z,93.03
2022-11-07T06:33:27.902Z,93.33
2022-11-07T06:34:27.890Z,93.44
2022-11-07T06:35:27.878Z,93.65
2022-11-07T06:36:27.862Z,92.93
2022-11-07T06:37:27.892Z,93.65
2022-11-07T06:38:27.842Z,92.93
2022-11-07T06:39:27.857Z,93.74
2022-11-07T06:40:27.817Z,93.24
2022-11-07T06:41:27.817Z,92.83
2022-11-07T06:42:27.804Z,93.33
2022-11-07T06:43:27.790Z,92.83
2022-11-07T06:44:27.787Z,92.72
2022-11-07T06:45:27.762Z,93.40
2022-11-07T06:46:27.748Z,93.80
2022-11-07T06:47:27.749Z,93.09
2022-11-07T06:48:27.764Z,93.50
2022-11-07T06:49:27.724Z,93.91
2022-11-07T06:50:27.726Z,92.78
2022-11-07T06:51:27.714Z,93.09
2022-11-07T06:52:27.691Z,93.80
2022-11-07T06:53:27.705Z,92.99
2022-11-07T06:54:27.689Z,93.60
2022-11-07T06:55:27.814Z,93.40
2022-11-07T06:56:27.669Z,93.91
2022-11-07T06:57:27.632Z,93.60
2022-11-07T06:58:27.630Z,93.60
2022-11-07T06:59:27.619Z,91.96
2022-11-07T07:00:27.700Z,92.07
2022-11-07T07:01:27.798Z,92.58
2022-11-07T07:02:52.318Z,92.27
2022-11-07T07:03:27.582Z,92.68
2022-11-07T07:04:27.557Z,92.99
2022-11-07T07:05:27.561Z,94.01
2022-11-07T07:06:27.530Z,92.99
2022-11-07T07:07:27.545Z,92.58
2022-11-07T07:08:27.540Z,91.66
2022-11-07T07:09:27.502Z,92.27
2022-11-07T07:10:27.486Z,91.56
2022-11-07T07:11:27.498Z,92.88
2022-11-07T07:12:27.465Z,92.78
2022-11-07T07:13:27.465Z,92.88
2022-11-07T07:14:27.479Z,92.27
2022-11-07T07:15:27.459Z,92.27
2022-11-07T07:16:27.454Z,92.58
2022-11-07T07:18:24.422Z,92.37
2022-11-07T07:19:25.401Z,92.78
2022-11-07T07:20:25.428Z,92.68
2022-11-07T07:21:25.374Z,92.47
2022-11-07T07:22:25.377Z,93.66
2022-11-07T07:23:25.366Z,92.54
2022-11-07T07:24:25.342Z,93.05
2022-11-07T07:25:25.341Z,92.27
2022-11-07T07:26:25.348Z,92.54
2022-11-07T07:27:25.318Z,92.54
2022-11-07T07:28:25.314Z,92.33
2022-11-07T07:29:25.301Z,92.54
2022-11-07T07:30:25.282Z,93.45
2022-11-07T07:31:25.277Z,91.00
2022-11-07T07:32:25.299Z,90.29
2022-11-07T07:33:25.250Z,92.13
2022-11-07T07:34:25.258Z,92.43
2022-11-07T07:35:25.263Z,91.61
2022-11-07T07:36:31.302Z,92.23
2022-11-07T07:37:25.222Z,91.92
2022-11-07T07:38:25.215Z,92.13
2022-11-07T07:39:25.173Z,91.31
2022-11-07T07:40:25.169Z,92.64
2022-11-07T07:41:25.179Z,92.33
2022-11-07T07:42:25.151Z,91.72
2022-11-07T07:43:25.126Z,91.20
2022-11-07T07:44:25.141Z,92.13
2022-11-07T07:45:25.147Z,91.41
2022-11-07T07:46:25.100Z,91.31
2022-11-07T07:47:25.093Z,90.90
2022-11-07T07:48:25.076Z,90.49
2022-11-07T07:49:25.070Z,92.33
2022-11-07T07:50:25.084Z,91.11
2022-11-07T07:51:25.049Z,91.20
2022-11-07T07:52:25.035Z,90.90
2022-11-07T07:53:25.026Z,91.27
2022-11-07T07:54:25.044Z,91.27
2022-11-07T07:55:25.061Z,91.37
2022-11-07T07:56:25.024Z,90.66
2022-11-07T07:57:24.978Z,91.57
2022-11-07T07:58:24.977Z,90.55
2022-11-07T07:59:24.969Z,90.66
2022-11-07T08:00:24.960Z,90.66
2022-11-07T08:01:25.134Z,91.37
2022-11-07T08:02:25.101Z,91.27
2022-11-07T08:03:24.939Z,90.14
2022-11-07T08:04:24.926Z,90.96
2022-11-07T08:05:24.889Z,90.66
2022-11-07T08:06:24.884Z,89.84
2022-11-07T08:07:24.870Z,89.32
2022-11-07T08:08:24.880Z,89.18
2022-11-07T08:09:24.858Z,90.20
2022-11-07T08:10:41.569Z,90.31
2022-11-07T08:11:24.832Z,90.81
2022-11-07T08:12:24.820Z,91.02
2022-11-07T08:13:24.826Z,91.12
2022-11-07T08:14:24.804Z,91.63
2022-11-07T08:15:24.784Z,89.28
2022-11-07T08:16:24.777Z,88.57
2022-11-07T08:17:24.769Z,89.28
2022-11-07T08:18:24.778Z,90.41
2022-11-07T08:19:24.741Z,89.59
2022-11-07T08:20:24.745Z,89.90
2022-11-07T08:21:24.724Z,89.69
2022-11-07T08:22:24.718Z,88.98
2022-11-07T08:23:24.724Z,89.79
2022-11-07T08:24:24.708Z,89.65
2022-11-07T08:25:24.692Z,89.34
2022-11-07T08:26:24.675Z,89.75
2022-11-07T08:27:24.654Z,89.65
2022-11-07T08:28:24.644Z,89.25
2022-11-07T08:29:24.631Z,89.96
2022-11-07T08:30:24.646Z,90.16
2022-11-07T08:31:24.624Z,89.25
2022-11-07T08:32:24.617Z,89.34
2022-11-07T08:33:24.706Z,90.16
2022-11-07T08:34:24.581Z,88.73
2022-11-07T08:35:24.574Z,88.63
2022-11-07T08:36:24.577Z,89.55
2022-11-07T08:37:24.626Z,89.55
2022-11-07T08:38:24.538Z,88.93
2022-11-07T08:39:24.536Z,89.45
2022-11-07T08:40:24.568Z,89.65
2022-11-07T08:41:24.522Z,88.32
2022-11-07T08:42:24.498Z,87.82
2022-11-07T08:43:24.572Z,89.25
2022-11-07T08:44:24.484Z,88.32
2022-11-07T08:45:24.476Z,88.93
2022-11-07T08:46:24.458Z,89.14
2022-11-07T08:47:24.466Z,88.63
2022-11-07T08:48:24.589Z,88.53
2022-11-07T08:49:24.422Z,88.73
2022-11-07T08:50:24.447Z,88.02
2022-11-07T08:51:24.416Z,89.34
2022-11-07T08:52:24.388Z,89.04
2022-11-07T08:53:24.417Z,89.04
2022-11-07T08:54:24.375Z,89.25
2022-11-07T08:55:24.350Z,88.90
2022-11-07T08:56:24.340Z,87.77
2022-11-07T08:57:24.326Z,87.57
2022-11-07T08:58:29.712Z,88.59
2022-11-07T08:59:24.319Z,88.79
2022-11-07T09:00:24.346Z,88.18
2022-11-07T09:01:24.478Z,89.00
2022-11-07T09:03:44.345Z,88.90
2022-11-07T09:04:24.306Z,87.88
2022-11-07T09:05:24.238Z,88.28
2022-11-07T09:06:24.254Z,88.79
2022-11-07T09:07:24.328Z,88.39
2022-11-07T09:08:24.231Z,87.67
2022-11-07T09:09:24.251Z,87.06
2022-11-07T09:10:24.232Z,87.77
2022-11-07T09:11:24.231Z,88.08
2022-11-07T09:12:24.179Z,87.12
2022-11-07T09:13:24.163Z,86.30
2022-11-07T09:14:24.159Z,88.24
2022-11-07T09:15:24.130Z,87.32
2022-11-07T09:16:24.125Z,87.63
2022-11-07T09:17:24.124Z,88.04
2022-11-07T09:18:24.110Z,88.34
2022-11-07T09:19:24.103Z,88.04
2022-11-07T09:20:24.088Z,88.04
2022-11-07T09:21:24.079Z,87.63
2022-11-07T09:22:24.064Z,87.94
2022-11-07T09:23:24.060Z,88.34
2022-11-07T09:24:24.054Z,87.02
2022-11-07T09:25:24.063Z,87.43
2022-11-07T09:26:24.027Z,87.02
2022-11-07T09:27:24.010Z,89.36
2022-11-07T09:28:24.008Z,88.04
2022-11-07T09:29:23.988Z,87.02
2022-11-07T09:30:23.995Z,86.82
2022-11-07T09:31:23.999Z,87.12
2022-11-07T09:32:44.022Z,87.12
2022-11-07T09:33:23.954Z,86.61
2022-11-07T09:34:23.933Z,86.71
2022-11-07T09:35:23.923Z,87.02
2022-11-07T09:36:23.920Z,87.84
2022-11-07T09:37:23.945Z,85.90
2022-11-07T09:38:23.893Z,86.57
2022-11-07T09:39:23.895Z,87.59
2022-11-07T09:40:23.870Z,86.68
2022-11-07T09:41:23.884Z,87.02
2022-11-07T09:42:23.843Z,86.77
2022-11-07T09:43:23.847Z,87.08
2022-11-07T09:44:29.458Z,87.18
2022-11-07T09:45:23.819Z,86.16
2022-11-07T09:46:23.809Z,86.16
2022-11-07T09:47:23.786Z,87.29
2022-11-07T09:48:23.777Z,87.08
2022-11-07T09:49:23.784Z,86.98
2022-11-07T09:50:23.774Z,86.16
2022-11-07T09:51:23.768Z,86.68
2022-11-07T09:52:23.732Z,86.77
2022-11-07T09:53:23.725Z,87.69
2022-11-07T09:54:23.729Z,86.68
2022-11-07T09:55:23.737Z,86.47
2022-11-07T09:56:23.697Z,86.77
2022-11-07T09:57:23.686Z,86.77
2022-11-07T09:58:23.672Z,85.66
2022-11-07T09:59:23.664Z,85.25
2022-11-07T10:00:23.647Z,86.16
2022-11-07T10:01:23.814Z,85.72
2022-11-07T10:02:23.699Z,86.83
2022-11-07T10:03:23.626Z,87.24
2022-11-07T10:04:25.844Z,87.35
2022-11-07T10:05:23.596Z,86.33
2022-11-07T10:06:24.425Z,86.53
2022-11-07T10:07:23.587Z,86.02
2022-11-07T10:08:23.569Z,84.29
2022-11-07T10:09:23.555Z,86.33
2022-11-07T10:10:23.579Z,86.63
2022-11-07T10:11:23.571Z,85.61
2022-11-07T10:12:23.533Z,85.31
2022-11-07T10:13:23.524Z,85.37
2022-11-07T10:14:23.509Z,85.58
2022-11-07T10:15:23.491Z,86.49
2022-11-07T10:16:23.497Z,85.98
2022-11-07T10:17:23.467Z,85.27
2022-11-07T10:18:23.474Z,85.78
2022-11-07T10:19:23.442Z,85.68
2022-11-07T10:20:24.909Z,85.78
2022-11-07T10:21:39.417Z,86.08
2022-11-07T10:22:23.557Z,85.27
2022-11-07T10:23:23.422Z,86.29
2022-11-07T10:24:23.389Z,86.80
2022-11-07T10:25:23.380Z,84.56
2022-11-07T10:26:23.367Z,85.78
2022-11-07T10:27:23.381Z,84.56
2022-11-07T10:28:23.374Z,84.86
2022-11-07T10:29:23.336Z,85.64
2022-11-07T10:30:23.320Z,86.76
2022-11-07T10:31:23.313Z,84.31
2022-11-07T10:32:23.298Z,84.92
2022-11-07T10:33:23.292Z,83.81
2022-11-07T10:34:23.505Z,84.42
2022-11-07T10:35:23.318Z,84.21
2022-11-07T10:36:23.278Z,84.92
2022-11-07T10:37:23.256Z,85.23
2022-11-07T10:38:23.252Z,84.72
2022-11-07T10:39:23.235Z,84.11
2022-11-07T10:40:23.246Z,82.28
2022-11-07T10:41:23.213Z,83.40
2022-11-07T10:42:23.197Z,83.20
2022-11-07T10:43:23.187Z,85.03
2022-11-07T10:44:23.170Z,83.50
2022-11-07T10:45:23.162Z,84.31
2022-11-07T10:46:23.165Z,84.42
2022-11-07T10:47:23.143Z,84.01
2022-11-07T10:48:23.131Z,84.11
2022-11-07T10:49:23.127Z,85.03
2022-11-07T10:50:23.106Z,85.53
2022-11-07T10:51:23.092Z,84.72
2022-11-07T10:52:23.100Z,86.04
2022-11-07T10:53:23.084Z,86.25
2022-11-07T10:54:23.056Z,85.64
2022-11-07T10:55:23.051Z,85.74
2022-11-07T10:56:23.040Z,84.82
2022-11-07T10:57:23.063Z,85.43
2022-11-07T10:58:23.032Z,85.13
2022-11-07T10:59:23.025Z,83.81
2022-11-07T11:00:22.996Z,84.11
2022-11-07T11:01:23.222Z,83.91
2022-11-07T11:02:23.022Z,84.42
2022-11-07T11:03:24.198Z,83.81
2022-11-07T11:04:22.955Z,84.62
2022-11-07T11:05:22.962Z,82.99
2022-11-07T11:06:22.949Z,84.52
2022-11-07T11:07:28.094Z,84.52
2022-11-07T11:08:22.922Z,82.89
2022-11-07T11:09:22.906Z,82.79
2022-11-07T11:10:22.924Z,84.31
2022-11-07T11:11:22.935Z,82.68
2022-11-07T11:12:22.884Z,83.91
2022-11-07T11:13:22.851Z,83.91
2022-11-07T11:14:22.887Z,83.50
2022-11-07T11:15:22.832Z,84.17
2022-11-07T11:16:22.841Z,82.54
2022-11-07T11:17:22.879Z,83.56
2022-11-07T11:18:22.801Z,83.56
2022-11-07T11:19:22.792Z,83.87
2022-11-07T11:20:22.775Z,84.17
2022-11-07T11:21:22.766Z,84.17
2022-11-07T11:22:22.772Z,81.84
2022-11-07T11:23:22.750Z,82.14
2022-11-07T11:24:22.738Z,82.14
2022-11-07T11:25:22.731Z,82.04
2022-11-07T11:26:22.710Z,81.93
2022-11-07T11:27:22.705Z,82.04
2022-11-07T11:28:22.734Z,82.24
2022-11-07T11:29:22.680Z,82.85
2022-11-07T11:30:22.669Z,81.02
2022-11-07T11:31:22.661Z,83.36
2022-11-07T11:32:22.676Z,83.42
2022-11-07T11:33:22.655Z,81.93
2022-11-07T11:34:22.644Z,81.12
2022-11-07T11:35:22.625Z,83.22
2022-11-07T11:36:22.610Z,80.88
2022-11-07T11:37:22.631Z,82.71
2022-11-07T11:38:22.617Z,82.81
2022-11-07T11:39:22.587Z,82.81
2022-11-07T11:40:22.569Z,83.22
2022-11-07T11:41:22.556Z,82.10
2022-11-07T11:42:22.545Z,82.81
2022-11-07T11:43:22.532Z,81.90
2022-11-07T11:44:22.548Z,81.70
2022-11-07T11:45:22.520Z,80.37
2022-11-07T11:46:22.519Z,81.09
2022-11-07T11:47:22.495Z,81.39
2022-11-07T11:48:22.482Z,81.19
2022-11-07T11:49:22.480Z,80.94
2022-11-07T11:50:22.481Z,81.76
2022-11-07T11:51:22.460Z,81.45
2022-11-07T11:52:22.425Z,80.84
2022-11-07T11:53:22.420Z,81.25
2022-11-07T11:54:22.420Z,79.22
2022-11-07T11:55:22.411Z,81.76
2022-11-07T11:56:22.382Z,80.84
2022-11-07T11:57:22.374Z,80.54
2022-11-07T11:58:22.385Z,81.56
2022-11-07T11:59:22.354Z,80.54
2022-11-07T12:00:22.363Z,80.33
2022-11-07T12:01:22.617Z,81.45
2022-11-07T12:02:22.387Z,80.84
2022-11-07T12:03:22.330Z,81.05
2022-11-07T12:04:22.303Z,81.45
2022-11-07T12:05:22.291Z,81.35
2022-11-07T12:06:22.296Z,80.44
2022-11-07T12:07:22.279Z,80.24
2022-11-07T12:08:22.266Z,81.15
2022-11-07T12:09:22.247Z,81.21
2022-11-07T12:10:22.249Z,80.19
2022-11-07T12:11:22.219Z,81.05
2022-11-07T12:12:22.220Z,81.96
2022-11-07T12:13:22.249Z,80.84
2022-11-07T12:14:22.214Z,79.93
2022-11-07T12:15:22.192Z,81.15
2022-11-07T12:16:22.165Z,80.64
2022-11-07T12:17:22.175Z,81.05
2022-11-07T12:18:22.189Z,81.25
2022-11-07T12:19:22.139Z,81.86
2022-11-07T12:20:22.134Z,81.86
2022-11-07T12:21:22.135Z,80.84
2022-11-07T12:22:22.106Z,81.86
2022-11-07T12:23:22.111Z,80.44
2022-11-07T12:24:22.103Z,80.54
2022-11-07T12:25:22.095Z,79.42
2022-11-07T12:26:22.064Z,81.25
2022-11-07T12:27:26.691Z,81.66
2022-11-07T12:28:22.082Z,80.24
2022-11-07T12:29:22.022Z,80.54
2022-11-07T12:30:22.019Z,82.37
2022-11-07T12:31:22.020Z,82.47
2022-11-07T12:32:21.988Z,83.89
2022-11-07T12:33:21.981Z,82.47
2022-11-07T12:34:21.991Z,81.86
2022-11-07T12:35:22.027Z,82.06
2022-11-07T12:36:21.956Z,83.69
2022-11-07T12:37:21.953Z,82.57
2022-11-07T12:38:21.936Z,82.26
2022-11-07T12:39:21.916Z,82.17
2022-11-07T12:40:21.912Z,82.78
2022-11-07T12:41:21.909Z,82.47
2022-11-07T12:42:21.892Z,82.78
2022-11-07T12:43:21.874Z,82.67
2022-11-07T12:44:21.863Z,83.22
2022-11-07T12:45:21.857Z,82.81
2022-11-07T12:46:21.871Z,83.42
2022-11-07T12:47:21.848Z,81.90
2022-11-07T12:48:21.835Z,82.57
2022-11-07T12:49:21.935Z,82.81
2022-11-07T12:50:21.806Z,83.62
2022-11-07T12:51:21.865Z,84.34
2022-11-07T12:52:21.788Z,83.62
2022-11-07T12:53:21.771Z,83.32
2022-11-07T12:54:21.760Z,83.12
2022-11-07T12:55:21.754Z,83.73
2022-11-07T12:56:21.721Z,82.51
2022-11-07T12:57:21.733Z,83.93
2022-11-07T12:58:21.769Z,81.59
2022-11-07T12:59:21.713Z,81.79
2022-11-07T13:00:27.682Z,82.20
2022-11-07T13:01:21.779Z,81.49
2022-11-07T13:02:21.727Z,81.70
2022-11-07T13:03:21.660Z,81.90
2022-11-07T13:04:21.658Z,80.98
2022-11-07T13:05:21.667Z,81.59
2022-11-07T13:06:21.634Z,82.92
2022-11-07T13:07:21.617Z,82.40
2022-11-07T13:08:21.624Z,80.78
2022-11-07T13:09:21.600Z,80.27
2022-11-07T13:10:21.573Z,81.19
2022-11-07T13:11:21.573Z,80.37
2022-11-07T13:12:21.558Z,81.29
2022-11-07T13:13:21.572Z,79.97
2022-11-07T13:14:24.252Z,80.98
2022-11-07T13:15:21.518Z,80.17
2022-11-07T13:16:21.523Z,80.17
2022-11-07T13:17:21.527Z,82.00
2022-11-07T13:18:21.499Z,80.98
2022-11-07T13:19:21.488Z,83.73
2022-11-07T13:20:21.484Z,81.79
2022-11-07T13:21:21.472Z,82.40
2022-11-07T13:22:21.452Z,83.12
2022-11-07T13:23:21.500Z,84.23
2022-11-07T13:24:21.426Z,83.53
2022-11-07T13:25:21.451Z,82.31
2022-11-07T13:26:45.977Z,83.53
2022-11-07T13:27:21.425Z,82.81
2022-11-07T13:28:21.382Z,82.40
2022-11-07T13:29:21.384Z,84.13
2022-11-07T13:30:21.366Z,84.03
2022-11-07T13:31:21.364Z,84.34
2022-11-07T13:32:21.991Z,83.73
2022-11-07T13:33:21.372Z,82.81
2022-11-07T13:34:21.351Z,83.32
2022-11-07T13:35:21.328Z,85.35
2022-11-07T13:37:31.622Z,83.42
2022-11-07T13:38:32.612Z,83.15
2022-11-07T13:39:32.764Z,83.93
2022-11-07T13:40:32.577Z,83.12
2022-11-07T13:41:32.570Z,83.46
2022-11-07T13:42:32.590Z,85.35
2022-11-07T13:43:32.541Z,83.06
2022-11-07T13:44:32.531Z,82.71
2022-11-07T13:45:32.517Z,82.54
2022-11-07T13:46:32.513Z,84.54
2022-11-07T13:47:32.525Z,83.93
2022-11-07T13:48:32.525Z,83.76
2022-11-07T13:49:32.533Z,83.67
2022-11-07T13:50:32.474Z,84.58
2022-11-07T13:51:32.450Z,83.06
2022-11-07T13:52:32.460Z,84.28
2022-11-07T13:53:32.521Z,82.95
2022-11-07T13:54:32.446Z,83.97
2022-11-07T13:55:32.424Z,83.46
2022-11-07T13:56:32.415Z,83.06
2022-11-07T13:57:32.401Z,84.78
2022-11-07T13:58:32.464Z,84.28
2022-11-07T13:59:36.488Z,84.38
2022-11-07T14:00:32.445Z,83.87
2022-11-07T14:01:32.478Z,83.46
2022-11-07T14:02:32.567Z,81.84
2022-11-07T14:03:32.332Z,83.26
2022-11-07T14:04:40.666Z,83.87
2022-11-07T14:05:32.328Z,82.65
2022-11-07T14:06:32.327Z,82.85
2022-11-07T14:07:32.279Z,82.65
2022-11-07T14:08:32.294Z,83.15
2022-11-07T14:09:32.260Z,82.75
2022-11-07T14:10:32.276Z,82.45
2022-11-07T14:11:32.238Z,84.48
2022-11-07T14:12:32.237Z,85.29
2022-11-07T14:13:34.693Z,85.09
2022-11-07T14:14:32.254Z,84.48
2022-11-07T14:15:32.200Z,83.06
2022-11-07T14:16:32.198Z,84.99
2022-11-07T14:17:32.167Z,83.26
2022-11-07T14:18:32.417Z,83.06
2022-11-07T14:19:32.137Z,83.15
2022-11-07T14:20:32.165Z,84.17
2022-11-07T14:21:32.116Z,83.87
2022-11-07T14:22:32.113Z,83.97
2022-11-07T14:23:32.105Z,84.48
2022-11-07T14:24:32.109Z,83.87
2022-11-07T14:25:32.281Z,84.17
2022-11-07T14:26:32.075Z,82.75
2022-11-07T14:27:32.095Z,84.58
2022-11-07T14:28:32.054Z,81.84
2022-11-07T14:29:32.043Z,82.54
2022-11-07T14:30:32.030Z,81.12
2022-11-07T14:31:32.019Z,83.67
2022-11-07T14:32:32.403Z,85.09
2022-11-07T14:33:32.016Z,82.65
2022-11-07T14:34:31.989Z,82.34
2022-11-07T14:35:31.974Z,84.07
2022-11-07T14:36:31.966Z,83.46
2022-11-07T14:37:31.966Z,83.56
2022-11-07T14:38:31.945Z,81.84
2022-11-07T14:39:32.028Z,82.14
2022-11-07T14:40:31.924Z,82.95
2022-11-07T14:41:31.928Z,82.65
2022-11-07T14:42:31.934Z,81.73
2022-11-07T14:43:31.913Z,82.65
2022-11-07T14:44:47.751Z,83.26
2022-11-07T14:46:10.347Z,81.63
2022-11-07T14:46:31.864Z,82.24
2022-11-07T14:47:31.861Z,82.65
2022-11-07T14:48:31.872Z,83.46
2022-11-07T14:49:31.823Z,83.46
2022-11-07T14:50:31.829Z,84.58
2022-11-07T14:51:31.798Z,84.03
2022-11-07T14:52:31.831Z,82.95
2022-11-07T14:53:31.773Z,83.67
2022-11-07T14:54:31.779Z,83.36
2022-11-07T14:55:31.758Z,85.09
2022-11-07T14:56:31.755Z,83.46
2022-11-07T14:57:31.736Z,83.67
2022-11-07T14:58:31.775Z,83.15
2022-11-07T14:59:31.710Z,83.06
2022-11-07T15:00:31.693Z,82.75
2022-11-07T15:01:31.923Z,82.85
2022-11-07T15:02:31.868Z,82.85
2022-11-07T15:03:31.683Z,83.36
2022-11-07T15:04:31.943Z,84.17
2022-11-07T15:05:31.650Z,84.17
2022-11-07T15:06:31.637Z,84.78
2022-11-07T15:07:31.628Z,84.28
2022-11-07T15:08:31.633Z,84.78
2022-11-07T15:09:31.633Z,84.17
2022-11-07T15:10:31.595Z,82.65
2022-11-07T15:11:31.767Z,82.54
2022-11-07T15:12:31.571Z,82.85
2022-11-07T15:13:31.563Z,83.87
2022-11-07T15:14:31.602Z,83.46
2022-11-07T15:15:31.577Z,84.07
2022-11-07T15:16:31.551Z,85.70
2022-11-07T15:17:33.418Z,83.26
2022-11-07T15:18:31.531Z,84.48
2022-11-07T15:19:31.501Z,84.68
2022-11-07T15:20:31.506Z,84.07
2022-11-07T15:21:31.478Z,83.97
2022-11-07T15:22:31.478Z,82.95
2022-11-07T15:23:31.479Z,83.67
2022-11-07T15:24:31.475Z,83.06
2022-11-07T15:25:31.437Z,83.06
2022-11-07T15:26:31.431Z,83.67
2022-11-07T15:27:31.426Z,83.97
2022-11-07T15:28:31.409Z,84.68
2022-11-07T15:29:31.417Z,83.67
2022-11-07T15:30:31.370Z,85.49
2022-11-07T15:31:31.354Z,84.88
2022-11-07T15:32:31.361Z,84.58
2022-11-07T15:33:31.370Z,83.97
2022-11-07T15:34:53.318Z,84.28
2022-11-07T15:35:43.981Z,85.60
2022-11-07T15:36:31.304Z,83.87
2022-11-07T15:37:31.290Z,85.19
2022-11-07T15:38:31.292Z,83.76
2022-11-07T15:39:31.341Z,84.68
2022-11-07T15:40:31.270Z,84.58
2022-11-07T15:41:31.276Z,85.09
2022-11-07T15:42:31.242Z,83.76
2022-11-07T15:43:31.251Z,86.00
2022-11-07T15:44:31.234Z,84.88
2022-11-07T15:45:31.211Z,84.38
2022-11-07T15:46:31.214Z,85.53
2022-11-07T15:47:31.226Z,85.03
2022-11-07T15:48:31.177Z,83.60
2022-11-07T15:49:31.166Z,85.13
2022-11-07T15:50:31.174Z,83.81
2022-11-07T15:51:31.145Z,84.62
2022-11-07T15:52:31.154Z,84.72
2022-11-07T15:53:31.202Z,84.52
2022-11-07T15:54:31.114Z,84.42
2022-11-07T15:55:31.111Z,84.01
2022-11-07T15:56:31.110Z,84.31
2022-11-07T15:57:31.084Z,84.31
2022-11-07T15:58:31.079Z,84.72
2022-11-07T15:59:31.086Z,85.13
2022-11-07T16:00:31.051Z,85.84
2022-11-07T16:01:31.231Z,85.74
2022-11-07T16:02:31.149Z,85.94
2022-11-07T16:03:31.013Z,84.62
2022-11-07T16:04:30.998Z,86.04
2022-11-07T16:05:31.040Z,86.25
2022-11-07T16:06:30.990Z,86.25
2022-11-07T16:07:30.963Z,85.23
2022-11-07T16:08:30.956Z,86.04
2022-11-07T16:09:30.955Z,85.23
2022-11-07T16:10:30.963Z,85.23
2022-11-07T16:11:30.927Z,85.53
2022-11-07T16:12:30.935Z,86.35
2022-11-07T16:13:30.919Z,86.65
2022-11-07T16:14:43.608Z,86.86
2022-11-07T16:15:30.902Z,85.74
2022-11-07T16:16:30.877Z,85.13
2022-11-07T16:17:30.863Z,87.47
2022-11-07T16:18:30.912Z,86.15
2022-11-07T16:19:30.899Z,86.65
2022-11-07T16:20:30.892Z,87.77
2022-11-07T16:21:30.875Z,87.57
2022-11-07T16:22:31.363Z,84.92
2022-11-07T16:23:30.852Z,84.21
2022-11-07T16:24:30.831Z,84.82
2022-11-07T16:25:30.833Z,85.74
2022-11-07T16:26:30.815Z,86.04
2022-11-07T16:27:30.815Z,85.13
2022-11-07T16:28:30.796Z,86.25
2022-11-07T16:29:30.823Z,85.13
2022-11-07T16:30:30.811Z,85.03
2022-11-07T16:31:30.786Z,86.55
2022-11-07T16:32:30.757Z,85.43
2022-11-07T16:33:30.755Z,87.26
2022-11-07T16:34:30.722Z,87.57
2022-11-07T16:35:30.739Z,86.96
2022-11-07T16:36:30.737Z,85.33
2022-11-07T16:37:30.714Z,86.15
2022-11-07T16:38:34.975Z,85.94
2022-11-07T16:39:30.691Z,87.06
2022-11-07T16:40:30.662Z,85.84
2022-11-07T16:41:30.668Z,86.35
2022-11-07T16:42:30.646Z,85.64
2022-11-07T16:43:30.635Z,85.43
2022-11-07T16:44:30.758Z,86.19
2022-11-07T16:45:30.603Z,86.86
2022-11-07T16:46:30.639Z,86.25